sensor_id;sensor_type;location;lat;lon;timestamp;P1;durP1;ratioP1;P2;durP2;ratioP2
2201;SDS011;1107;48.654;9.250;2022-09-04T00:05:29;8.07;;;7.47;;
2201;SDS011;1107;48.654;9.250;2022-09-04T00:08:07;9.10;;;8.50;;
2201;SDS011;1107;48.654;9.250;2022-09-04T00:10:47;18.43;;;9.00;;
2201;SDS011;1107;48.654;9.250;2022-09-04T00:13:20;9.63;;;9.13;;
2201;SDS011;1107;48.654;9.250;2022-09-04T00:15:54;10.13;;;9.03;;
2201;SDS011;1107;48.654;9.250;2022-09-04T00:18:25;9.00;;;8.50;;
2201;SDS011;1107;48.654;9.250;2022-09-04T00:21:00;9.33;;;8.73;;
2201;SDS011;1107;48.654;9.250;2022-09-04T00:23:31;9.73;;;9.03;;
2201;SDS011;1107;48.654;9.250;2022-09-04T00:26:07;10.63;;;9.77;;
2201;SDS011;1107;48.654;9.250;2022-09-04T00:28:40;10.77;;;10.07;;
2201;SDS011;1107;48.654;9.250;2022-09-04T00:31:13;10.57;;;9.60;;
2201;SDS011;1107;48.654;9.250;2022-09-04T00:33:51;11.10;;;10.03;;
2201;SDS011;1107;48.654;9.250;2022-09-04T00:36:25;10.93;;;10.13;;
2201;SDS011;1107;48.654;9.250;2022-09-04T00:38:54;11.17;;;10.30;;
2201;SDS011;1107;48.654;9.250;2022-09-04T00:41:27;11.20;;;10.20;;
2201;SDS011;1107;48.654;9.250;2022-09-04T00:47:21;11.03;;;10.13;;
2201;SDS011;1107;48.654;9.250;2022-09-04T00:50:23;11.70;;;10.70;;
2201;SDS011;1107;48.654;9.250;2022-09-04T00:59:52;12.23;;;11.10;;
2201;SDS011;1107;48.654;9.250;2022-09-04T01:02:34;11.97;;;11.07;;
2201;SDS011;1107;48.654;9.250;2022-09-04T01:05:22;10.67;;;9.97;;
2201;SDS011;1107;48.654;9.250;2022-09-04T01:08:03;9.83;;;9.00;;
2201;SDS011;1107;48.654;9.250;2022-09-04T01:10:43;10.17;;;9.43;;
2201;SDS011;1107;48.654;9.250;2022-09-04T01:13:17;9.37;;;8.57;;
2201;SDS011;1107;48.654;9.250;2022-09-04T01:15:54;10.47;;;9.87;;
2201;SDS011;1107;48.654;9.250;2022-09-04T01:18:29;9.43;;;8.93;;
2201;SDS011;1107;48.654;9.250;2022-09-04T01:21:07;10.07;;;9.17;;
2201;SDS011;1107;48.654;9.250;2022-09-04T01:26:52;9.80;;;9.10;;
2201;SDS011;1107;48.654;9.250;2022-09-04T01:29:27;9.83;;;9.17;;
2201;SDS011;1107;48.654;9.250;2022-09-04T01:32:06;8.73;;;8.17;;
2201;SDS011;1107;48.654;9.250;2022-09-04T01:34:40;9.30;;;8.30;;
2201;SDS011;1107;48.654;9.250;2022-09-04T01:37:29;9.07;;;8.40;;
2201;SDS011;1107;48.654;9.250;2022-09-04T01:40:21;8.10;;;7.60;;
2201;SDS011;1107;48.654;9.250;2022-09-04T01:42:58;8.97;;;8.33;;
2201;SDS011;1107;48.654;9.250;2022-09-04T01:45:32;9.80;;;9.10;;
2201;SDS011;1107;48.654;9.250;2022-09-04T01:48:08;9.10;;;8.60;;
2201;SDS011;1107;48.654;9.250;2022-09-04T01:50:38;8.63;;;8.10;;
2201;SDS011;1107;48.654;9.250;2022-09-04T01:53:11;9.70;;;8.93;;
2201;SDS011;1107;48.654;9.250;2022-09-04T01:55:42;10.30;;;9.30;;
2201;SDS011;1107;48.654;9.250;2022-09-04T01:58:17;10.40;;;9.57;;
2201;SDS011;1107;48.654;9.250;2022-09-04T02:00:52;10.03;;;9.10;;
2201;SDS011;1107;48.654;9.250;2022-09-04T02:03:27;9.90;;;9.00;;
2201;SDS011;1107;48.654;9.250;2022-09-04T02:06:04;9.87;;;9.37;;
2201;SDS011;1107;48.654;9.250;2022-09-04T02:08:45;11.00;;;10.13;;
2201;SDS011;1107;48.654;9.250;2022-09-04T02:11:25;9.97;;;9.27;;
2201;SDS011;1107;48.654;9.250;2022-09-04T02:14:00;10.43;;;9.73;;
2201;SDS011;1107;48.654;9.250;2022-09-04T02:16:43;9.80;;;9.20;;
2201;SDS011;1107;48.654;9.250;2022-09-04T02:19:23;11.90;;;9.93;;
2201;SDS011;1107;48.654;9.250;2022-09-04T02:22:00;8.93;;;8.23;;
2201;SDS011;1107;48.654;9.250;2022-09-04T02:24:40;10.20;;;8.87;;
2201;SDS011;1107;48.654;9.250;2022-09-04T02:27:18;10.07;;;9.10;;
2201;SDS011;1107;48.654;9.250;2022-09-04T02:29:54;10.03;;;9.10;;
2201;SDS011;1107;48.654;9.250;2022-09-04T02:32:29;9.00;;;8.47;;
2201;SDS011;1107;48.654;9.250;2022-09-04T02:35:02;8.87;;;8.07;;
2201;SDS011;1107;48.654;9.250;2022-09-04T02:37:39;10.33;;;9.40;;
2201;SDS011;1107;48.654;9.250;2022-09-04T02:40:14;9.10;;;8.50;;
2201;SDS011;1107;48.654;9.250;2022-09-04T02:42:50;9.87;;;9.07;;
2201;SDS011;1107;48.654;9.250;2022-09-04T02:45:28;10.97;;;9.33;;
2201;SDS011;1107;48.654;9.250;2022-09-04T02:48:04;11.27;;;10.00;;
2201;SDS011;1107;48.654;9.250;2022-09-04T02:50:41;10.77;;;9.77;;
2201;SDS011;1107;48.654;9.250;2022-09-04T02:53:19;10.73;;;9.97;;
2201;SDS011;1107;48.654;9.250;2022-09-04T02:56:09;10.60;;;9.47;;
2201;SDS011;1107;48.654;9.250;2022-09-04T02:58:49;11.47;;;10.07;;
2201;SDS011;1107;48.654;9.250;2022-09-04T03:01:29;10.40;;;9.40;;
2201;SDS011;1107;48.654;9.250;2022-09-04T03:04:03;11.30;;;10.10;;
2201;SDS011;1107;48.654;9.250;2022-09-04T03:06:46;11.27;;;10.33;;
2201;SDS011;1107;48.654;9.250;2022-09-04T03:09:18;10.80;;;9.80;;
2201;SDS011;1107;48.654;9.250;2022-09-04T03:11:52;9.93;;;9.27;;
2201;SDS011;1107;48.654;9.250;2022-09-04T03:14:25;10.80;;;9.67;;
2201;SDS011;1107;48.654;9.250;2022-09-04T03:17:00;9.70;;;9.07;;
2201;SDS011;1107;48.654;9.250;2022-09-04T03:19:35;13.33;;;10.07;;
2201;SDS011;1107;48.654;9.250;2022-09-04T03:22:10;9.73;;;8.97;;
2201;SDS011;1107;48.654;9.250;2022-09-04T03:24:44;10.83;;;10.00;;
2201;SDS011;1107;48.654;9.250;2022-09-04T03:27:26;9.47;;;8.93;;
2201;SDS011;1107;48.654;9.250;2022-09-04T03:29:58;10.50;;;9.70;;
2201;SDS011;1107;48.654;9.250;2022-09-04T03:32:34;9.60;;;8.80;;
2201;SDS011;1107;48.654;9.250;2022-09-04T03:35:13;8.60;;;8.03;;
2201;SDS011;1107;48.654;9.250;2022-09-04T03:37:58;8.73;;;8.20;;
2201;SDS011;1107;48.654;9.250;2022-09-04T03:40:36;8.13;;;7.73;;
2201;SDS011;1107;48.654;9.250;2022-09-04T03:43:20;7.60;;;7.30;;
2201;SDS011;1107;48.654;9.250;2022-09-04T03:45:57;7.53;;;7.23;;
2201;SDS011;1107;48.654;9.250;2022-09-04T03:48:40;8.70;;;7.53;;
2201;SDS011;1107;48.654;9.250;2022-09-04T03:51:17;7.13;;;6.73;;
2201;SDS011;1107;48.654;9.250;2022-09-04T03:53:52;6.57;;;6.27;;
2201;SDS011;1107;48.654;9.250;2022-09-04T03:56:36;6.80;;;6.50;;
2201;SDS011;1107;48.654;9.250;2022-09-04T03:59:21;7.63;;;7.20;;
2201;SDS011;1107;48.654;9.250;2022-09-04T04:02:03;8.73;;;7.30;;
2201;SDS011;1107;48.654;9.250;2022-09-04T04:07:49;8.13;;;7.53;;
2201;SDS011;1107;48.654;9.250;2022-09-04T04:10:40;7.60;;;7.30;;
2201;SDS011;1107;48.654;9.250;2022-09-04T04:13:27;8.20;;;7.80;;
2201;SDS011;1107;48.654;9.250;2022-09-04T04:16:23;8.27;;;7.87;;
2201;SDS011;1107;48.654;9.250;2022-09-04T04:22:09;8.27;;;7.97;;
2201;SDS011;1107;48.654;9.250;2022-09-04T04:25:07;8.87;;;8.37;;
2201;SDS011;1107;48.654;9.250;2022-09-04T04:27:47;7.93;;;7.53;;
2201;SDS011;1107;48.654;9.250;2022-09-04T04:30:26;9.50;;;8.90;;
2201;SDS011;1107;48.654;9.250;2022-09-04T04:35:51;8.20;;;7.80;;
2201;SDS011;1107;48.654;9.250;2022-09-04T04:38:30;8.17;;;7.67;;
2201;SDS011;1107;48.654;9.250;2022-09-04T04:41:10;8.80;;;8.00;;
2201;SDS011;1107;48.654;9.250;2022-09-04T04:43:59;8.30;;;7.63;;
2201;SDS011;1107;48.654;9.250;2022-09-04T04:46:43;8.40;;;7.57;;
2201;SDS011;1107;48.654;9.250;2022-09-04T04:49:31;9.10;;;7.60;;
2201;SDS011;1107;48.654;9.250;2022-09-04T04:52:21;8.07;;;7.30;;
2201;SDS011;1107;48.654;9.250;2022-09-04T04:54:59;8.43;;;7.90;;
2201;SDS011;1107;48.654;9.250;2022-09-04T04:57:39;8.10;;;7.40;;
2201;SDS011;1107;48.654;9.250;2022-09-04T05:00:19;8.13;;;7.73;;
2201;SDS011;1107;48.654;9.250;2022-09-04T05:02:52;7.10;;;6.57;;
2201;SDS011;1107;48.654;9.250;2022-09-04T05:05:47;7.00;;;6.60;;
2201;SDS011;1107;48.654;9.250;2022-09-04T05:08:31;8.03;;;7.63;;
2201;SDS011;1107;48.654;9.250;2022-09-04T05:11:03;8.30;;;7.73;;
2201;SDS011;1107;48.654;9.250;2022-09-04T05:13:38;8.63;;;7.00;;
2201;SDS011;1107;48.654;9.250;2022-09-04T05:16:14;9.13;;;6.73;;
2201;SDS011;1107;48.654;9.250;2022-09-04T05:18:51;6.73;;;6.43;;
2201;SDS011;1107;48.654;9.250;2022-09-04T05:21:24;6.80;;;6.10;;
2201;SDS011;1107;48.654;9.250;2022-09-04T05:24:00;7.07;;;6.60;;
2201;SDS011;1107;48.654;9.250;2022-09-04T05:26:35;16.10;;;6.13;;
2201;SDS011;1107;48.654;9.250;2022-09-04T05:29:12;5.90;;;5.57;;
2201;SDS011;1107;48.654;9.250;2022-09-04T05:31:46;5.27;;;4.90;;
2201;SDS011;1107;48.654;9.250;2022-09-04T05:34:23;5.07;;;4.70;;
2201;SDS011;1107;48.654;9.250;2022-09-04T05:36:59;5.50;;;5.17;;
2201;SDS011;1107;48.654;9.250;2022-09-04T05:39:35;5.50;;;5.10;;
2201;SDS011;1107;48.654;9.250;2022-09-04T05:42:30;5.17;;;4.73;;
2201;SDS011;1107;48.654;9.250;2022-09-04T05:45:09;5.00;;;4.70;;
2201;SDS011;1107;48.654;9.250;2022-09-04T05:47:46;5.07;;;4.73;;
2201;SDS011;1107;48.654;9.250;2022-09-04T05:50:31;4.17;;;3.97;;
2201;SDS011;1107;48.654;9.250;2022-09-04T05:53:22;4.87;;;4.57;;
2201;SDS011;1107;48.654;9.250;2022-09-04T05:59:22;4.33;;;4.13;;
2201;SDS011;1107;48.654;9.250;2022-09-04T06:02:14;4.60;;;3.83;;
2201;SDS011;1107;48.654;9.250;2022-09-04T06:05:02;5.17;;;4.93;;
2201;SDS011;1107;48.654;9.250;2022-09-04T06:07:58;5.30;;;4.40;;
2201;SDS011;1107;48.654;9.250;2022-09-04T06:10:34;6.03;;;3.93;;
2201;SDS011;1107;48.654;9.250;2022-09-04T06:13:16;4.77;;;4.00;;
2201;SDS011;1107;48.654;9.250;2022-09-04T06:18:56;3.87;;;3.67;;
2201;SDS011;1107;48.654;9.250;2022-09-04T06:21:43;4.17;;;3.87;;
2201;SDS011;1107;48.654;9.250;2022-09-04T06:27:23;3.87;;;3.57;;
2201;SDS011;1107;48.654;9.250;2022-09-04T06:30:05;4.00;;;3.80;;
2201;SDS011;1107;48.654;9.250;2022-09-04T06:35:45;4.97;;;4.40;;
2201;SDS011;1107;48.654;9.250;2022-09-04T06:38:42;4.23;;;4.03;;
2201;SDS011;1107;48.654;9.250;2022-09-04T06:41:23;4.10;;;3.90;;
2201;SDS011;1107;48.654;9.250;2022-09-04T06:44:04;3.93;;;3.73;;
2201;SDS011;1107;48.654;9.250;2022-09-04T06:46:41;4.10;;;3.80;;
2201;SDS011;1107;48.654;9.250;2022-09-04T06:49:14;3.93;;;3.73;;
2201;SDS011;1107;48.654;9.250;2022-09-04T06:51:52;4.60;;;4.20;;
2201;SDS011;1107;48.654;9.250;2022-09-04T06:54:36;3.60;;;3.40;;
2201;SDS011;1107;48.654;9.250;2022-09-04T06:57:17;3.70;;;3.40;;
2201;SDS011;1107;48.654;9.250;2022-09-04T07:00:05;3.37;;;3.17;;
2201;SDS011;1107;48.654;9.250;2022-09-04T07:02:40;4.30;;;3.90;;
2201;SDS011;1107;48.654;9.250;2022-09-04T07:05:28;3.67;;;3.37;;
2201;SDS011;1107;48.654;9.250;2022-09-04T07:08:06;4.07;;;3.60;;
2201;SDS011;1107;48.654;9.250;2022-09-04T07:10:41;3.67;;;3.47;;
2201;SDS011;1107;48.654;9.250;2022-09-04T07:13:18;4.00;;;3.80;;
2201;SDS011;1107;48.654;9.250;2022-09-04T07:16:24;5.23;;;3.40;;
2201;SDS011;1107;48.654;9.250;2022-09-04T07:19:09;3.13;;;2.93;;
2201;SDS011;1107;48.654;9.250;2022-09-04T07:21:57;4.50;;;3.77;;
2201;SDS011;1107;48.654;9.250;2022-09-04T07:24:55;3.67;;;3.47;;
2201;SDS011;1107;48.654;9.250;2022-09-04T07:27:36;4.90;;;4.20;;
2201;SDS011;1107;48.654;9.250;2022-09-04T07:30:21;3.70;;;3.50;;
2201;SDS011;1107;48.654;9.250;2022-09-04T07:32:52;3.63;;;3.43;;
2201;SDS011;1107;48.654;9.250;2022-09-04T07:35:23;3.80;;;3.60;;
2201;SDS011;1107;48.654;9.250;2022-09-04T07:37:56;15.03;;;4.00;;
2201;SDS011;1107;48.654;9.250;2022-09-04T07:40:31;4.87;;;4.37;;
2201;SDS011;1107;48.654;9.250;2022-09-04T07:43:04;4.57;;;3.47;;
2201;SDS011;1107;48.654;9.250;2022-09-04T07:45:39;5.23;;;4.80;;
2201;SDS011;1107;48.654;9.250;2022-09-04T07:48:17;4.13;;;3.83;;
2201;SDS011;1107;48.654;9.250;2022-09-04T07:50:56;4.33;;;4.03;;
2201;SDS011;1107;48.654;9.250;2022-09-04T07:53:47;4.50;;;4.30;;
2201;SDS011;1107;48.654;9.250;2022-09-04T07:56:41;4.40;;;4.20;;
2201;SDS011;1107;48.654;9.250;2022-09-04T08:02:33;3.83;;;3.63;;
2201;SDS011;1107;48.654;9.250;2022-09-04T08:05:17;3.87;;;3.67;;
2201;SDS011;1107;48.654;9.250;2022-09-04T08:08:03;4.17;;;3.97;;
2201;SDS011;1107;48.654;9.250;2022-09-04T08:10:55;3.80;;;3.60;;
2201;SDS011;1107;48.654;9.250;2022-09-04T08:13:40;3.80;;;3.60;;
2201;SDS011;1107;48.654;9.250;2022-09-04T08:16:18;3.87;;;3.67;;
2201;SDS011;1107;48.654;9.250;2022-09-04T08:19:06;3.50;;;3.30;;
2201;SDS011;1107;48.654;9.250;2022-09-04T08:21:44;4.73;;;3.30;;
2201;SDS011;1107;48.654;9.250;2022-09-04T08:24:21;3.90;;;3.70;;
2201;SDS011;1107;48.654;9.250;2022-09-04T08:27:15;3.40;;;3.20;;
2201;SDS011;1107;48.654;9.250;2022-09-04T08:29:57;3.30;;;3.10;;
2201;SDS011;1107;48.654;9.250;2022-09-04T08:35:46;3.07;;;2.87;;
2201;SDS011;1107;48.654;9.250;2022-09-04T08:38:33;3.40;;;3.20;;
2201;SDS011;1107;48.654;9.250;2022-09-04T08:41:19;3.30;;;3.10;;
2201;SDS011;1107;48.654;9.250;2022-09-04T08:50:30;2.77;;;2.60;;
2201;SDS011;1107;48.654;9.250;2022-09-04T08:53:14;3.10;;;2.90;;
2201;SDS011;1107;48.654;9.250;2022-09-04T08:56:16;3.03;;;2.80;;
2201;SDS011;1107;48.654;9.250;2022-09-04T09:02:09;2.40;;;2.30;;
2201;SDS011;1107;48.654;9.250;2022-09-04T09:04:58;3.33;;;2.70;;
2201;SDS011;1107;48.654;9.250;2022-09-04T09:10:53;2.67;;;2.53;;
2201;SDS011;1107;48.654;9.250;2022-09-04T09:16:50;3.13;;;2.50;;
2201;SDS011;1107;48.654;9.250;2022-09-04T09:19:36;3.00;;;2.60;;
2201;SDS011;1107;48.654;9.250;2022-09-04T09:22:15;2.97;;;2.77;;
2201;SDS011;1107;48.654;9.250;2022-09-04T09:25:10;2.90;;;2.70;;
2201;SDS011;1107;48.654;9.250;2022-09-04T09:30:54;15.17;;;2.30;;
2201;SDS011;1107;48.654;9.250;2022-09-04T09:33:56;2.83;;;2.63;;
2201;SDS011;1107;48.654;9.250;2022-09-04T09:36:50;2.73;;;2.53;;
2201;SDS011;1107;48.654;9.250;2022-09-04T09:39:54;2.53;;;2.33;;
2201;SDS011;1107;48.654;9.250;2022-09-04T09:42:53;2.40;;;2.20;;
2201;SDS011;1107;48.654;9.250;2022-09-04T09:45:39;2.37;;;2.23;;
2201;SDS011;1107;48.654;9.250;2022-09-04T09:48:36;2.50;;;2.30;;
2201;SDS011;1107;48.654;9.250;2022-09-04T09:54:43;3.40;;;3.20;;
2201;SDS011;1107;48.654;9.250;2022-09-04T10:00:37;8.83;;;3.43;;
2201;SDS011;1107;48.654;9.250;2022-09-04T10:06:27;3.10;;;2.47;;
2201;SDS011;1107;48.654;9.250;2022-09-04T10:09:39;3.30;;;3.10;;
2201;SDS011;1107;48.654;9.250;2022-09-04T10:12:35;7.00;;;2.80;;
2201;SDS011;1107;48.654;9.250;2022-09-04T10:18:43;3.33;;;2.70;;
2201;SDS011;1107;48.654;9.250;2022-09-04T10:21:37;2.07;;;1.97;;
2201;SDS011;1107;48.654;9.250;2022-09-04T10:30:39;2.37;;;2.17;;
2201;SDS011;1107;48.654;9.250;2022-09-04T10:33:23;2.50;;;2.30;;
2201;SDS011;1107;48.654;9.250;2022-09-04T10:35:57;2.70;;;2.50;;
2201;SDS011;1107;48.654;9.250;2022-09-04T10:38:36;3.40;;;2.50;;
2201;SDS011;1107;48.654;9.250;2022-09-04T10:44:36;2.37;;;2.17;;
2201;SDS011;1107;48.654;9.250;2022-09-04T10:47:19;2.43;;;2.23;;
2201;SDS011;1107;48.654;9.250;2022-09-04T10:53:17;3.70;;;3.00;;
2201;SDS011;1107;48.654;9.250;2022-09-04T10:56:14;2.70;;;2.50;;
2201;SDS011;1107;48.654;9.250;2022-09-04T11:01:53;2.60;;;2.40;;
2201;SDS011;1107;48.654;9.250;2022-09-04T11:04:40;2.30;;;2.20;;
2201;SDS011;1107;48.654;9.250;2022-09-04T11:07:34;2.50;;;2.30;;
2201;SDS011;1107;48.654;9.250;2022-09-04T11:10:22;2.53;;;2.33;;
2201;SDS011;1107;48.654;9.250;2022-09-04T11:16:13;2.73;;;2.53;;
2201;SDS011;1107;48.654;9.250;2022-09-04T11:19:29;2.50;;;2.30;;
2201;SDS011;1107;48.654;9.250;2022-09-04T11:22:30;2.40;;;2.20;;
2201;SDS011;1107;48.654;9.250;2022-09-04T11:25:47;2.40;;;2.20;;
2201;SDS011;1107;48.654;9.250;2022-09-04T11:31:47;2.60;;;2.40;;
2201;SDS011;1107;48.654;9.250;2022-09-04T11:34:37;2.87;;;2.67;;
2201;SDS011;1107;48.654;9.250;2022-09-04T11:46:40;2.20;;;2.00;;
2201;SDS011;1107;48.654;9.250;2022-09-04T11:49:27;2.20;;;2.00;;
2201;SDS011;1107;48.654;9.250;2022-09-04T11:55:08;2.30;;;2.20;;
2201;SDS011;1107;48.654;9.250;2022-09-04T11:57:51;7.23;;;2.03;;
2201;SDS011;1107;48.654;9.250;2022-09-04T12:00:41;2.20;;;2.10;;
2201;SDS011;1107;48.654;9.250;2022-09-04T12:09:18;2.10;;;2.00;;
2201;SDS011;1107;48.654;9.250;2022-09-04T12:15:04;2.23;;;2.10;;
2201;SDS011;1107;48.654;9.250;2022-09-04T12:20:55;2.50;;;2.30;;
2201;SDS011;1107;48.654;9.250;2022-09-04T12:23:52;3.47;;;2.20;;
2201;SDS011;1107;48.654;9.250;2022-09-04T12:26:45;2.30;;;2.10;;
2201;SDS011;1107;48.654;9.250;2022-09-04T12:35:34;7.30;;;1.87;;
2201;SDS011;1107;48.654;9.250;2022-09-04T12:38:31;2.10;;;1.90;;
2201;SDS011;1107;48.654;9.250;2022-09-04T12:41:26;2.23;;;2.07;;
2201;SDS011;1107;48.654;9.250;2022-09-04T12:44:02;2.40;;;1.80;;
2201;SDS011;1107;48.654;9.250;2022-09-04T12:46:42;2.33;;;2.13;;
2201;SDS011;1107;48.654;9.250;2022-09-04T12:49:30;2.93;;;2.07;;
2201;SDS011;1107;48.654;9.250;2022-09-04T12:52:20;2.30;;;2.17;;
2201;SDS011;1107;48.654;9.250;2022-09-04T12:54:59;2.10;;;2.00;;
2201;SDS011;1107;48.654;9.250;2022-09-04T12:57:38;5.80;;;2.00;;
2201;SDS011;1107;48.654;9.250;2022-09-04T13:00:11;2.43;;;2.23;;
2201;SDS011;1107;48.654;9.250;2022-09-04T13:02:54;2.20;;;2.00;;
2201;SDS011;1107;48.654;9.250;2022-09-04T13:05:32;1.97;;;1.80;;
2201;SDS011;1107;48.654;9.250;2022-09-04T13:08:20;1.90;;;1.80;;
2201;SDS011;1107;48.654;9.250;2022-09-04T13:10:59;2.20;;;2.10;;
2201;SDS011;1107;48.654;9.250;2022-09-04T13:13:40;1.97;;;1.87;;
2201;SDS011;1107;48.654;9.250;2022-09-04T13:16:17;2.10;;;1.90;;
2201;SDS011;1107;48.654;9.250;2022-09-04T13:18:52;2.23;;;2.03;;
2201;SDS011;1107;48.654;9.250;2022-09-04T13:21:36;1.87;;;1.77;;
2201;SDS011;1107;48.654;9.250;2022-09-04T13:24:24;1.77;;;1.67;;
2201;SDS011;1107;48.654;9.250;2022-09-04T13:27:09;3.00;;;2.20;;
2201;SDS011;1107;48.654;9.250;2022-09-04T13:29:53;2.20;;;2.10;;
2201;SDS011;1107;48.654;9.250;2022-09-04T13:32:37;1.90;;;1.80;;
2201;SDS011;1107;48.654;9.250;2022-09-04T13:35:13;3.17;;;1.83;;
2201;SDS011;1107;48.654;9.250;2022-09-04T13:37:55;1.73;;;1.60;;
2201;SDS011;1107;48.654;9.250;2022-09-04T13:41:04;1.80;;;1.70;;
2201;SDS011;1107;48.654;9.250;2022-09-04T13:43:51;1.77;;;1.67;;
2201;SDS011;1107;48.654;9.250;2022-09-04T13:46:31;1.93;;;1.83;;
2201;SDS011;1107;48.654;9.250;2022-09-04T13:49:02;2.30;;;2.10;;
2201;SDS011;1107;48.654;9.250;2022-09-04T13:51:36;2.13;;;2.00;;
2201;SDS011;1107;48.654;9.250;2022-09-04T13:54:10;2.53;;;2.20;;
2201;SDS011;1107;48.654;9.250;2022-09-04T13:56:43;2.90;;;1.87;;
2201;SDS011;1107;48.654;9.250;2022-09-04T13:59:16;1.87;;;1.77;;
2201;SDS011;1107;48.654;9.250;2022-09-04T14:01:46;1.93;;;1.83;;
2201;SDS011;1107;48.654;9.250;2022-09-04T14:04:17;1.93;;;1.83;;
2201;SDS011;1107;48.654;9.250;2022-09-04T14:06:50;3.50;;;1.73;;
2201;SDS011;1107;48.654;9.250;2022-09-04T14:09:26;2.23;;;2.03;;
2201;SDS011;1107;48.654;9.250;2022-09-04T14:12:07;2.00;;;1.90;;
2201;SDS011;1107;48.654;9.250;2022-09-04T14:14:50;2.00;;;1.90;;
2201;SDS011;1107;48.654;9.250;2022-09-04T14:17:43;6.13;;;2.03;;
2201;SDS011;1107;48.654;9.250;2022-09-04T14:20:15;3.10;;;2.03;;
2201;SDS011;1107;48.654;9.250;2022-09-04T14:22:48;2.33;;;2.13;;
2201;SDS011;1107;48.654;9.250;2022-09-04T14:25:28;1.93;;;1.73;;
2201;SDS011;1107;48.654;9.250;2022-09-04T14:28:06;2.30;;;2.10;;
2201;SDS011;1107;48.654;9.250;2022-09-04T14:30:40;1.80;;;1.70;;
2201;SDS011;1107;48.654;9.250;2022-09-04T14:33:16;2.10;;;1.90;;
2201;SDS011;1107;48.654;9.250;2022-09-04T14:35:53;2.37;;;2.20;;
2201;SDS011;1107;48.654;9.250;2022-09-04T14:38:33;2.00;;;1.90;;
2201;SDS011;1107;48.654;9.250;2022-09-04T14:41:20;2.10;;;2.00;;
2201;SDS011;1107;48.654;9.250;2022-09-04T14:44:02;2.40;;;2.20;;
2201;SDS011;1107;48.654;9.250;2022-09-04T14:46:38;1.70;;;1.60;;
2201;SDS011;1107;48.654;9.250;2022-09-04T14:49:15;2.00;;;1.90;;
2201;SDS011;1107;48.654;9.250;2022-09-04T14:51:47;2.30;;;2.10;;
2201;SDS011;1107;48.654;9.250;2022-09-04T14:54:22;1.80;;;1.70;;
2201;SDS011;1107;48.654;9.250;2022-09-04T14:56:53;18.90;;;2.20;;
2201;SDS011;1107;48.654;9.250;2022-09-04T14:59:25;3.50;;;2.03;;
2201;SDS011;1107;48.654;9.250;2022-09-04T15:02:11;2.43;;;1.80;;
2201;SDS011;1107;48.654;9.250;2022-09-04T15:04:45;2.17;;;2.07;;
2201;SDS011;1107;48.654;9.250;2022-09-04T15:07:20;2.17;;;2.07;;
2201;SDS011;1107;48.654;9.250;2022-09-04T15:10:02;2.10;;;2.00;;
2201;SDS011;1107;48.654;9.250;2022-09-04T15:12:35;2.13;;;1.93;;
2201;SDS011;1107;48.654;9.250;2022-09-04T15:15:08;2.03;;;1.93;;
2201;SDS011;1107;48.654;9.250;2022-09-04T15:17:43;2.37;;;2.17;;
2201;SDS011;1107;48.654;9.250;2022-09-04T15:20:17;3.33;;;1.93;;
2201;SDS011;1107;48.654;9.250;2022-09-04T15:22:48;2.50;;;2.30;;
2201;SDS011;1107;48.654;9.250;2022-09-04T15:28:16;2.03;;;1.93;;
2201;SDS011;1107;48.654;9.250;2022-09-04T15:30:59;2.10;;;2.00;;
2201;SDS011;1107;48.654;9.250;2022-09-04T15:33:35;2.07;;;1.97;;
2201;SDS011;1107;48.654;9.250;2022-09-04T15:36:04;2.30;;;2.10;;
2201;SDS011;1107;48.654;9.250;2022-09-04T15:38:34;2.13;;;2.03;;
2201;SDS011;1107;48.654;9.250;2022-09-04T15:41:13;2.20;;;2.00;;
2201;SDS011;1107;48.654;9.250;2022-09-04T15:43:45;2.30;;;2.10;;
2201;SDS011;1107;48.654;9.250;2022-09-04T15:46:27;2.97;;;2.63;;
2201;SDS011;1107;48.654;9.250;2022-09-04T15:49:13;5.50;;;2.40;;
2201;SDS011;1107;48.654;9.250;2022-09-04T15:51:47;2.13;;;2.00;;
2201;SDS011;1107;48.654;9.250;2022-09-04T15:54:21;2.50;;;2.30;;
2201;SDS011;1107;48.654;9.250;2022-09-04T15:56:56;3.47;;;1.87;;
2201;SDS011;1107;48.654;9.250;2022-09-04T15:59:38;2.10;;;2.00;;
2201;SDS011;1107;48.654;9.250;2022-09-04T16:02:19;2.10;;;2.00;;
2201;SDS011;1107;48.654;9.250;2022-09-04T16:05:01;4.70;;;2.20;;
2201;SDS011;1107;48.654;9.250;2022-09-04T16:07:37;1.87;;;1.77;;
2201;SDS011;1107;48.654;9.250;2022-09-04T16:10:12;2.20;;;2.10;;
2201;SDS011;1107;48.654;9.250;2022-09-04T16:12:50;2.33;;;2.20;;
2201;SDS011;1107;48.654;9.250;2022-09-04T16:15:25;1.90;;;1.80;;
2201;SDS011;1107;48.654;9.250;2022-09-04T16:17:59;3.40;;;2.10;;
2201;SDS011;1107;48.654;9.250;2022-09-04T16:20:35;2.37;;;2.17;;
2201;SDS011;1107;48.654;9.250;2022-09-04T16:23:11;2.93;;;2.27;;
2201;SDS011;1107;48.654;9.250;2022-09-04T16:25:41;2.47;;;2.30;;
2201;SDS011;1107;48.654;9.250;2022-09-04T16:28:12;1.90;;;1.80;;
2201;SDS011;1107;48.654;9.250;2022-09-04T16:30:53;2.77;;;2.57;;
2201;SDS011;1107;48.654;9.250;2022-09-04T16:33:25;2.70;;;2.50;;
2201;SDS011;1107;48.654;9.250;2022-09-04T16:35:57;6.10;;;2.63;;
2201;SDS011;1107;48.654;9.250;2022-09-04T16:38:28;2.00;;;1.90;;
2201;SDS011;1107;48.654;9.250;2022-09-04T16:40:59;2.43;;;2.23;;
2201;SDS011;1107;48.654;9.250;2022-09-04T16:43:35;2.20;;;2.10;;
2201;SDS011;1107;48.654;9.250;2022-09-04T16:46:07;2.33;;;2.13;;
2201;SDS011;1107;48.654;9.250;2022-09-04T16:48:43;2.33;;;2.13;;
2201;SDS011;1107;48.654;9.250;2022-09-04T16:51:20;2.10;;;2.00;;
2201;SDS011;1107;48.654;9.250;2022-09-04T16:53:52;2.47;;;2.27;;
2201;SDS011;1107;48.654;9.250;2022-09-04T16:56:25;2.27;;;2.10;;
2201;SDS011;1107;48.654;9.250;2022-09-04T16:59:07;3.13;;;2.40;;
2201;SDS011;1107;48.654;9.250;2022-09-04T17:01:42;2.30;;;2.20;;
2201;SDS011;1107;48.654;9.250;2022-09-04T17:04:22;2.23;;;2.13;;
2201;SDS011;1107;48.654;9.250;2022-09-04T17:06:55;6.80;;;2.20;;
2201;SDS011;1107;48.654;9.250;2022-09-04T17:09:35;2.37;;;2.17;;
2201;SDS011;1107;48.654;9.250;2022-09-04T17:12:17;4.63;;;2.17;;
2201;SDS011;1107;48.654;9.250;2022-09-04T17:14:59;4.93;;;2.17;;
2201;SDS011;1107;48.654;9.250;2022-09-04T17:17:33;3.37;;;3.17;;
2201;SDS011;1107;48.654;9.250;2022-09-04T17:20:07;3.10;;;2.90;;
2201;SDS011;1107;48.654;9.250;2022-09-04T17:22:39;3.33;;;3.03;;
2201;SDS011;1107;48.654;9.250;2022-09-04T17:25:14;3.87;;;3.57;;
2201;SDS011;1107;48.654;9.250;2022-09-04T17:27:48;10.50;;;3.40;;
2201;SDS011;1107;48.654;9.250;2022-09-04T17:30:25;3.50;;;2.90;;
2201;SDS011;1107;48.654;9.250;2022-09-04T17:32:58;2.87;;;2.67;;
2201;SDS011;1107;48.654;9.250;2022-09-04T17:35:33;2.37;;;2.20;;
2201;SDS011;1107;48.654;9.250;2022-09-04T17:38:09;2.43;;;2.20;;
2201;SDS011;1107;48.654;9.250;2022-09-04T17:40:49;2.17;;;1.97;;
2201;SDS011;1107;48.654;9.250;2022-09-04T17:43:35;14.90;;;2.63;;
2201;SDS011;1107;48.654;9.250;2022-09-04T17:46:11;2.20;;;2.00;;
2201;SDS011;1107;48.654;9.250;2022-09-04T17:48:51;2.27;;;2.17;;
2201;SDS011;1107;48.654;9.250;2022-09-04T17:51:22;2.10;;;2.00;;
2201;SDS011;1107;48.654;9.250;2022-09-04T17:53:51;2.53;;;2.33;;
2201;SDS011;1107;48.654;9.250;2022-09-04T17:56:23;4.67;;;2.47;;
2201;SDS011;1107;48.654;9.250;2022-09-04T17:58:54;2.60;;;2.40;;
2201;SDS011;1107;48.654;9.250;2022-09-04T18:01:26;3.13;;;2.83;;
2201;SDS011;1107;48.654;9.250;2022-09-04T18:04:05;3.50;;;3.20;;
2201;SDS011;1107;48.654;9.250;2022-09-04T18:06:45;2.90;;;2.70;;
2201;SDS011;1107;48.654;9.250;2022-09-04T18:09:15;3.60;;;3.23;;
2201;SDS011;1107;48.654;9.250;2022-09-04T18:11:50;4.77;;;3.30;;
2201;SDS011;1107;48.654;9.250;2022-09-04T18:14:29;3.30;;;3.00;;
2201;SDS011;1107;48.654;9.250;2022-09-04T18:17:05;2.90;;;2.70;;
2201;SDS011;1107;48.654;9.250;2022-09-04T18:19:37;3.57;;;2.93;;
2201;SDS011;1107;48.654;9.250;2022-09-04T18:22:18;3.23;;;3.03;;
2201;SDS011;1107;48.654;9.250;2022-09-04T18:24:52;2.93;;;2.73;;
2201;SDS011;1107;48.654;9.250;2022-09-04T18:27:27;3.43;;;3.23;;
2201;SDS011;1107;48.654;9.250;2022-09-04T18:30:00;2.73;;;2.53;;
2201;SDS011;1107;48.654;9.250;2022-09-04T18:32:30;3.30;;;3.10;;
2201;SDS011;1107;48.654;9.250;2022-09-04T18:35:06;3.20;;;2.97;;
2201;SDS011;1107;48.654;9.250;2022-09-04T18:37:42;2.90;;;2.70;;
2201;SDS011;1107;48.654;9.250;2022-09-04T18:40:13;2.80;;;2.60;;
2201;SDS011;1107;48.654;9.250;2022-09-04T18:42:45;2.73;;;2.53;;
2201;SDS011;1107;48.654;9.250;2022-09-04T18:45:20;2.70;;;2.50;;